カンクン の空港の天気 - METARとTAF

カンクン国際空港 ( MMUN / CUN ) - メキシコ キンタナ・ロー州カンクン
飛行場実況気象(Metar)
観測時間09/22 18:48 CDT (09/22 23:48 UTC)
風向・風速静穏 0m/s
視程9650m
天気現象
全天の8割程度の雲 雲底高度 460m
全天の8割程度の雲 雲底高度 7620m
気温27℃
湿度94%
気圧1012.7hPa
METARMMUN 222348Z 00000KT 6SM BKN015TCU BKN250 27/26 A2990 RMK SLP127 52003 965 8/208
過去の天気等 Google飛行場航空写真 Wunderground天気予報

過去48時間のMETAR

飛行場予報(TAF)
発表時間: 9/22 18:23 CDT (9/22 23:23 UTC)
予報対象時間: 22日19時 CDT ~ 24日1時 CDT
風向・風速北北東 3m/s
視程10km以上
天気現象煙霧
全天の8割程度の雲 雲底高度 460m
全天の8割程度の雲 雲底高度 7620m
22日21時 CDT ~ 22日22時 CDT に徐々に
全天の8割程度の積乱雲 雲底高度 460m
全天の8割程度の雲 雲底高度 2440m
22日22時 CDT ~ 23日2時 CDT に一時的に
視程8050m
天気現象雷雨
23日3時 CDT から
風向・風速東北東 3m/s
視程10km以上
天気現象煙霧
全天の8割程度の雲 雲底高度 460m
全天の8割程度の雲 雲底高度 2440m
23日12時 CDT ~ 23日13時 CDT に徐々に
風向・風速北北東 5m/s
全天の8割程度の積乱雲 雲底高度 460m
全天の8割程度の雲 雲底高度 2440m
23日14時 CDT から 確率 40% で
視程8050m
天気現象雷雨
23日20時 CDT から
風向・風速北東 4m/s
視程10km以上
天気現象煙霧
全天の4割程度の雲 雲底高度 460m
全天の8割程度の雲 雲底高度 2440m
TAF MMUN 222323Z 2300/2406 03006KT 6SM HZ BKN015 BKN250 TX32/2321Z TN24/2312Z
BECMG 2302/2303 BKN015CB BKN080
TEMPO 2303/2307 5SM TSRA
FM230800 07005KT 6SM HZ BKN015 BKN080
BECMG 2317/2318 02010KT BKN015CB BKN080
PROB40 2319/2323 5SM TSRA
FM240100 04008KT 6SM HZ SCT015 BKN080